Terminal Aerodrome Forecast
Issued by NWS

Home | Current Version | Previous Version | Text Only | Print | Product List | Glossary Off
Versions: 1 2 3 4 5 6 7 8 9 10 11 12 13 14 15 16 17

000
FTUS41 KCLE 161100
TAFFDY
TAF
KFDY 161140Z 1612/1712 12010KT P6SM SCT040 OVC070
     FM161300 14010KT P6SM VCSH BKN040 OVC070
     FM161600 18012KT P6SM VCSH BKN016 OVC040
      TEMPO 1617/1621 5SM -SHRA BKN012 OVC025
     FM170100 18008KT P6SM OVC008
     FM170800 25006KT P6SM SCT010 BKN120=

USA.gov is the U.S. government's official web portal to all federal, state and local government web resources and services.